Time,TemperatureF,DewpointF,PressureIn,WindDirection,WindDirectionDegrees,WindSpeedMPH,WindSpeedGustMPH,Humidity,HourlyPrecipIn,Conditions,Clouds,dailyrainin,SoftwareType,DateUTC
2013-03-05 00:00:00,51.4,27.2,30.37,East,79,1.0,10.0,39,0.00,,,0.00,Wunderground v.1.15,2013-03-05 08:00:00,
2013-03-05 00:05:00,52.1,27.2,30.37,East,79,1.0,10.0,38,0.00,,,0.00,Wunderground v.1.15,2013-03-05 08:05:00,
2013-03-05 00:15:00,52.5,27.6,30.37,East,79,0.0,8.0,38,0.00,,,0.00,Wunderground v.1.15,2013-03-05 08:15:00,
2013-03-05 00:20:00,52.7,27.8,30.37,East,79,0.0,8.0,38,0.00,,,0.00,Wunderground v.1.15,2013-03-05 08:20:00,
2013-03-05 00:30:00,52.5,27.6,30.37,East,79,1.0,8.0,38,0.00,,,0.00,Wunderground v.1.15,2013-03-05 08:30:00,
2013-03-05 00:35:00,52.1,27.2,30.37,East,79,2.0,8.0,38,0.00,,,0.00,Wunderground v.1.15,2013-03-05 08:35:00,
2013-03-05 00:45:00,51.8,27.6,30.37,East,79,0.0,6.0,39,0.00,,,0.00,Wunderground v.1.15,2013-03-05 08:45:00,
2013-03-05 00:50:00,51.7,27.5,30.37,East,79,1.0,1.0,39,0.00,,,0.00,Wunderground v.1.15,2013-03-05 08:50:00,
2013-03-05 00:55:00,51.4,27.2,30.37,East,79,1.0,6.0,39,0.00,,,0.00,Wunderground v.1.15,2013-03-05 08:55:00,
2013-03-05 01:00:00,50.6,27.1,30.37,East,79,0.0,6.0,40,0.00,,,0.00,Wunderground v.1.15,2013-03-05 09:00:00,
2013-03-05 01:10:00,48.9,27.4,30.37,East,79,0.0,4.0,43,0.00,,,0.00,Wunderground v.1.15,2013-03-05 09:10:00,
2013-03-05 01:20:00,49.1,28.7,30.36,East,79,0.0,4.0,45,0.00,,,0.00,Wunderground v.1.15,2013-03-05 09:20:00,
2013-03-05 01:30:00,49.4,28.4,30.36,East,79,2.0,4.0,44,0.00,,,0.00,Wunderground v.1.15,2013-03-05 09:30:00,
2013-03-05 01:35:00,49.5,29.0,30.36,East,79,2.0,5.0,45,0.00,,,0.00,Wunderground v.1.15,2013-03-05 09:35:00,
2013-03-05 01:45:00,51.3,30.1,30.36,East,79,2.0,5.0,44,0.00,,,0.00,Wunderground v.1.15,2013-03-05 09:45:00,
2013-03-05 01:50:00,51.4,29.6,30.36,East,79,2.0,2.0,43,0.00,,,0.00,Wunderground v.1.15,2013-03-05 09:50:00,
2013-03-05 02:00:00,49.3,29.4,30.36,East,79,0.0,5.0,46,0.00,,,0.00,Wunderground v.1.15,2013-03-05 10:00:00,
2013-03-05 02:10:00,48.6,29.8,30.36,East,79,0.0,5.0,48,0.00,,,0.00,Wunderground v.1.15,2013-03-05 10:10:00,
2013-03-05 02:15:00,48.5,29.7,30.36,East,79,0.0,5.0,48,0.00,,,0.00,Wunderground v.1.15,2013-03-05 10:15:00,
2013-03-05 02:25:00,48.0,30.2,30.35,East,79,0.0,5.0,50,0.00,,,0.00,Wunderground v.1.15,2013-03-05 10:25:00,
2013-03-05 02:35:00,48.0,30.7,30.35,East,79,0.0,5.0,51,0.00,,,0.00,Wunderground v.1.15,2013-03-05 10:35:00,
2013-03-05 02:45:00,47.6,30.8,30.35,East,79,0.0,3.0,52,0.00,,,0.00,Wunderground v.1.15,2013-03-05 10:45:00,
2013-03-05 02:50:00,47.6,31.3,30.35,East,79,0.0,3.0,53,0.00,,,0.00,Wunderground v.1.15,2013-03-05 10:50:00,
2013-03-05 03:00:00,47.9,31.6,30.34,East,79,1.0,1.0,53,0.00,,,0.00,Wunderground v.1.15,2013-03-05 11:00:00,
2013-03-05 03:05:00,47.9,32.0,30.34,East,79,0.0,4.0,54,0.00,,,0.00,Wunderground v.1.15,2013-03-05 11:05:00,
2013-03-05 03:15:00,47.9,32.0,30.34,East,79,0.0,4.0,54,0.00,,,0.00,Wunderground v.1.15,2013-03-05 11:15:00,
2013-03-05 03:20:00,47.6,32.2,30.34,East,79,0.0,4.0,55,0.00,,,0.00,Wunderground v.1.15,2013-03-05 11:20:00,
2013-03-05 03:30:00,47.0,31.7,30.35,East,79,0.0,4.0,55,0.00,,,0.00,Wunderground v.1.15,2013-03-05 11:30:00,
2013-03-05 03:35:00,46.3,31.9,30.35,East,79,0.0,4.0,57,0.00,,,0.00,Wunderground v.1.15,2013-03-05 11:35:00,
2013-03-05 03:40:00,46.6,32.6,30.35,East,79,0.0,0.0,58,0.00,,,0.00,Wunderground v.1.15,2013-03-05 11:40:00,
2013-03-05 03:50:00,47.4,32.9,30.34,East,79,0.0,0.0,57,0.00,,,0.00,Wunderground v.1.15,2013-03-05 11:50:00,
2013-03-05 04:00:00,47.6,32.7,30.35,East,79,0.0,0.0,56,0.00,,,0.00,Wunderground v.1.15,2013-03-05 12:00:00,
2013-03-05 04:05:00,47.7,33.2,30.34,East,79,1.0,3.0,57,0.00,,,0.00,Wunderground v.1.15,2013-03-05 12:05:00,
2013-03-05 04:15:00,47.9,32.9,30.34,East,79,1.0,4.0,56,0.00,,,0.00,Wunderground v.1.15,2013-03-05 12:15:00,
2013-03-05 04:20:00,47.7,32.8,30.34,East,79,0.0,4.0,56,0.00,,,0.00,Wunderground v.1.15,2013-03-05 12:20:00,
2013-03-05 04:30:00,46.6,32.6,30.35,East,79,0.0,4.0,58,0.00,,,0.00,Wunderground v.1.15,2013-03-05 12:30:00,
2013-03-05 04:35:00,46.1,32.6,30.35,East,79,0.0,4.0,59,0.00,,,0.00,Wunderground v.1.15,2013-03-05 12:35:00,
2013-03-05 04:40:00,45.5,32.4,30.35,East,79,0.0,4.0,60,0.00,,,0.00,Wunderground v.1.15,2013-03-05 12:40:00,
2013-03-05 04:45:00,44.8,32.2,30.35,East,79,0.0,4.0,61,0.00,,,0.00,Wunderground v.1.15,2013-03-05 12:45:00,
2013-03-05 04:50:00,44.9,32.7,30.35,East,79,0.0,4.0,62,0.00,,,0.00,Wunderground v.1.15,2013-03-05 12:50:00,
2013-03-05 05:00:00,45.4,33.5,30.36,East,79,0.0,4.0,63,0.00,,,0.00,Wunderground v.1.15,2013-03-05 13:00:00,
2013-03-05 05:05:00,46.1,33.8,30.35,East,79,1.0,4.0,62,0.00,,,0.00,Wunderground v.1.15,2013-03-05 13:05:00,
2013-03-05 05:15:00,46.7,33.5,30.35,East,79,0.0,3.0,60,0.00,,,0.00,Wunderground v.1.15,2013-03-05 13:15:00,
2013-03-05 05:20:00,47.2,33.6,30.35,East,79,1.0,3.0,59,0.00,,,0.00,Wunderground v.1.15,2013-03-05 13:20:00,
2013-03-05 05:30:00,47.2,33.2,30.35,East,79,1.0,3.0,58,0.00,,,0.00,Wunderground v.1.15,2013-03-05 13:30:00,
2013-03-05 05:35:00,47.6,33.5,30.35,East,79,2.0,6.0,58,0.00,,,0.00,Wunderground v.1.15,2013-03-05 13:35:00,
2013-03-05 05:45:00,47.2,32.7,30.34,East,79,3.0,6.0,57,0.00,,,0.00,Wunderground v.1.15,2013-03-05 13:45:00,
2013-03-05 05:55:00,46.6,32.6,30.35,East,79,1.0,6.0,58,0.00,,,0.00,Wunderground v.1.15,2013-03-05 13:55:00,
2013-03-05 06:00:00,46.3,32.7,30.35,East,79,0.0,6.0,59,0.00,,,0.00,Wunderground v.1.15,2013-03-05 14:00:00,
2013-03-05 06:05:00,46.1,32.6,30.35,East,79,0.0,6.0,59,0.00,,,0.00,Wunderground v.1.15,2013-03-05 14:05:00,
2013-03-05 06:15:00,46.0,32.5,30.35,East,79,0.0,5.0,59,0.00,,,0.00,Wunderground v.1.15,2013-03-05 14:15:00,
2013-03-05 06:20:00,45.9,32.4,30.35,East,79,0.0,5.0,59,0.00,,,0.00,Wunderground v.1.15,2013-03-05 14:20:00,
2013-03-05 06:30:00,47.7,33.2,30.35,East,79,0.0,5.0,57,0.00,,,0.00,Wunderground v.1.15,2013-03-05 14:30:00,
2013-03-05 06:35:00,48.1,33.1,30.35,East,79,0.0,5.0,56,0.00,,,0.00,Wunderground v.1.15,2013-03-05 14:35:00,
2013-03-05 06:45:00,47.6,32.7,30.36,East,79,0.0,0.0,56,0.00,,,0.00,Wunderground v.1.15,2013-03-05 14:45:00,
2013-03-05 06:50:00,47.5,33.0,30.36,East,79,0.0,0.0,57,0.00,,,0.00,Wunderground v.1.15,2013-03-05 14:50:00,
2013-03-05 07:00:00,49.1,33.2,30.36,East,79,0.0,0.0,54,0.00,,,0.00,Wunderground v.1.15,2013-03-05 15:00:00,
2013-03-05 07:05:00,49.4,33.4,30.36,East,79,0.0,0.0,54,0.00,,,0.00,Wunderground v.1.15,2013-03-05 15:05:00,
2013-03-05 07:15:00,50.8,33.8,30.37,East,79,0.0,0.0,52,0.00,,,0.00,Wunderground v.1.15,2013-03-05 15:15:00,
2013-03-05 07:20:00,52.2,34.1,30.37,East,79,0.0,0.0,50,0.00,,,0.00,Wunderground v.1.15,2013-03-05 15:20:00,
2013-03-05 07:30:00,53.9,34.1,30.36,East,79,0.0,0.0,47,0.00,,,0.00,Wunderground v.1.15,2013-03-05 15:30:00,
2013-03-05 07:40:00,55.4,33.3,30.37,East,99,1.0,5.0,43,0.00,,,0.00,Wunderground v.1.15,2013-03-05 15:40:00,
2013-03-05 07:45:00,56.6,33.8,30.37,ESE,105,2.0,5.0,42,0.00,,,0.00,Wunderground v.1.15,2013-03-05 15:45:00,
2013-03-05 07:50:00,57.4,33.3,30.37,ESE,108,3.0,7.0,40,0.00,,,0.00,Wunderground v.1.15,2013-03-05 15:50:00,
2013-03-05 08:00:00,58.2,34.0,30.37,ESE,113,6.0,6.0,40,0.00,,,0.00,Wunderground v.1.15,2013-03-05 16:00:00,
2013-03-05 08:05:00,58.7,34.4,30.37,ESE,113,5.0,11.0,40,0.00,,,0.00,Wunderground v.1.15,2013-03-05 16:05:00,
2013-03-05 08:15:00,59.0,33.4,30.37,ESE,104,4.0,11.0,38,0.00,,,0.00,Wunderground v.1.15,2013-03-05 16:15:00,
2013-03-05 08:20:00,59.4,33.8,30.37,ESE,108,5.0,5.0,38,0.00,,,0.00,Wunderground v.1.15,2013-03-05 16:20:00,
2013-03-05 08:25:00,59.4,33.8,30.37,ESE,106,6.0,6.0,38,0.00,,,0.00,Wunderground v.1.15,2013-03-05 16:25:00,
2013-03-05 08:35:00,59.8,32.8,30.37,ESE,113,6.0,7.0,36,0.00,,,0.00,Wunderground v.1.15,2013-03-05 16:35:00,
2013-03-05 08:45:00,60.7,32.9,30.37,SSE,162,6.0,13.0,35,0.00,,,0.00,Wunderground v.1.15,2013-03-05 16:45:00,
2013-03-05 08:50:00,60.7,32.9,30.37,ESE,118,7.0,13.0,35,0.00,,,0.00,Wunderground v.1.15,2013-03-05 16:50:00,
2013-03-05 09:00:00,60.8,33.0,30.36,ESE,104,9.0,9.0,35,0.00,,,0.00,Wunderground v.1.15,2013-03-05 17:00:00,
2013-03-05 09:05:00,61.0,32.4,30.36,East,89,9.0,10.0,34,0.00,,,0.00,Wunderground v.1.15,2013-03-05 17:05:00,
2013-03-05 09:15:00,61.4,32.0,30.36,SE,133,10.0,10.0,33,0.00,,,0.00,Wunderground v.1.15,2013-03-05 17:15:00,
2013-03-05 09:20:00,61.6,31.4,30.36,SE,140,10.0,18.0,32,0.00,,,0.00,Wunderground v.1.15,2013-03-05 17:20:00,
2013-03-05 09:30:00,62.1,31.1,30.35,East,100,9.0,9.0,31,0.00,,,0.00,Wunderground v.1.15,2013-03-05 17:30:00,
2013-03-05 09:35:00,62.3,31.3,30.35,ESE,102,8.0,21.0,31,0.00,,,0.00,Wunderground v.1.15,2013-03-05 17:35:00,
2013-03-05 09:40:00,62.6,31.5,30.35,East,101,9.0,21.0,31,0.00,,,0.00,Wunderground v.1.15,2013-03-05 17:40:00,
2013-03-05 09:50:00,62.1,31.9,30.35,ESE,121,10.0,10.0,32,0.00,,,0.00,Wunderground v.1.15,2013-03-05 17:50:00,
2013-03-05 10:00:00,62.0,31.8,30.35,SE,124,11.0,21.0,32,0.00,,,0.00,Wunderground v.1.15,2013-03-05 18:00:00,
2013-03-05 10:05:00,62.1,31.1,30.35,ESE,123,11.0,23.0,31,0.00,,,0.00,Wunderground v.1.15,2013-03-05 18:05:00,
2013-03-05 10:15:00,62.0,31.8,30.35,ESE,115,12.0,23.0,32,0.00,,,0.00,Wunderground v.1.15,2013-03-05 18:15:00,
2013-03-05 10:20:00,61.7,31.5,30.35,ESE,108,14.0,14.0,32,0.00,,,0.00,Wunderground v.1.15,2013-03-05 18:20:00,
2013-03-05 10:30:00,62.2,32.0,30.35,ENE,62,14.0,14.0,32,0.00,,,0.00,Wunderground v.1.15,2013-03-05 18:30:00,
2013-03-05 10:35:00,62.2,31.2,30.35,ESE,113,14.0,19.0,31,0.00,,,0.00,Wunderground v.1.15,2013-03-05 18:35:00,
2013-03-05 10:45:00,62.2,32.0,30.34,SE,127,13.0,24.0,32,0.00,,,0.00,Wunderground v.1.15,2013-03-05 18:45:00,
2013-03-05 10:50:00,62.4,32.1,30.34,ESE,119,13.0,13.0,32,0.00,,,0.00,Wunderground v.1.15,2013-03-05 18:50:00,
2013-03-05 11:00:00,62.5,32.2,30.34,ESE,106,13.0,24.0,32,0.00,,,0.00,Wunderground v.1.15,2013-03-05 19:00:00,
2013-03-05 11:05:00,62.5,32.2,30.34,ESE,119,13.0,25.0,32,0.00,,,0.00,Wunderground v.1.15,2013-03-05 19:05:00,
2013-03-05 11:15:00,62.4,31.3,30.34,SE,132,15.0,25.0,31,0.00,,,0.00,Wunderground v.1.15,2013-03-05 19:15:00,
2013-03-05 11:20:00,63.0,31.0,30.34,ESE,123,15.0,25.0,30,0.00,,,0.00,Wunderground v.1.15,2013-03-05 19:20:00,
2013-03-05 11:30:00,63.0,31.9,30.33,ESE,118,15.0,15.0,31,0.00,,,0.00,Wunderground v.1.15,2013-03-05 19:30:00,
2013-03-05 11:35:00,62.7,31.6,30.33,ESE,108,15.0,17.0,31,0.00,,,0.00,Wunderground v.1.15,2013-03-05 19:35:00,
2013-03-05 11:40:00,62.6,32.3,30.33,ESE,111,16.0,27.0,32,0.00,,,0.00,Wunderground v.1.15,2013-03-05 19:40:00,
2013-03-05 11:50:00,63.1,31.9,30.32,ESE,115,14.0,27.0,31,0.00,,,0.00,Wunderground v.1.15,2013-03-05 19:50:00,
2013-03-05 12:00:00,62.8,31.7,30.32,ESE,115,16.0,16.0,31,0.00,,,0.00,Wunderground v.1.15,2013-03-05 20:00:00,
2013-03-05 12:05:00,63.0,31.9,30.32,ESE,119,15.0,25.0,31,0.00,,,0.00,Wunderground v.1.15,2013-03-05 20:05:00,
2013-03-05 12:15:00,63.4,32.2,30.31,East,98,13.0,25.0,31,0.00,,,0.00,Wunderground v.1.15,2013-03-05 20:15:00,
2013-03-05 12:20:00,64.1,32.0,30.31,SE,142,12.0,25.0,30,0.00,,,0.00,Wunderground v.1.15,2013-03-05 20:20:00,
2013-03-05 12:30:00,64.0,31.9,30.31,SE,140,13.0,13.0,30,0.00,,,0.00,Wunderground v.1.15,2013-03-05 20:30:00,
2013-03-05 12:35:00,63.8,32.6,30.30,SSE,148,12.0,26.0,31,0.00,,,0.00,Wunderground v.1.15,2013-03-05 20:35:00,
2013-03-05 12:45:00,64.6,33.3,30.30,SE,127,11.0,26.0,31,0.00,,,0.00,Wunderground v.1.15,2013-03-05 20:45:00,
2013-03-05 12:50:00,64.9,31.9,30.29,ESE,119,9.0,26.0,29,0.00,,,0.00,Wunderground v.1.15,2013-03-05 20:50:00,
2013-03-05 13:00:00,64.0,31.9,30.28,SE,133,12.0,12.0,30,0.00,,,0.00,Wunderground v.1.15,2013-03-05 21:00:00,
2013-03-05 13:05:00,64.1,32.0,30.28,SE,135,13.0,15.0,30,0.00,,,0.00,Wunderground v.1.15,2013-03-05 21:05:00,
2013-03-05 13:15:00,64.5,32.4,30.28,SE,134,13.0,23.0,30,0.00,,,0.00,Wunderground v.1.15,2013-03-05 21:15:00,
2013-03-05 13:20:00,64.5,32.4,30.28,ESE,112,12.0,12.0,30,0.00,,,0.00,Wunderground v.1.15,2013-03-05 21:20:00,
2013-03-05 13:25:00,64.3,32.2,30.27,ESE,115,13.0,15.0,30,0.00,,,0.00,Wunderground v.1.15,2013-03-05 21:25:00,
2013-03-05 13:35:00,64.3,33.0,30.27,ESE,108,14.0,15.0,31,0.00,,,0.00,Wunderground v.1.15,2013-03-05 21:35:00,
2013-03-05 13:45:00,64.7,33.3,30.26,ESE,123,13.0,16.0,31,0.00,,,0.00,Wunderground v.1.15,2013-03-05 21:45:00,
2013-03-05 13:50:00,64.9,33.5,30.26,SE,142,13.0,13.0,31,0.00,,,0.00,Wunderground v.1.15,2013-03-05 21:50:00,
2013-03-05 14:00:00,64.3,33.0,30.26,SSE,149,14.0,26.0,31,0.00,,,0.00,Wunderground v.1.15,2013-03-05 22:00:00,
2013-03-05 14:05:00,64.5,33.2,30.26,SE,135,13.0,26.0,31,0.00,,,0.00,Wunderground v.1.15,2013-03-05 22:05:00,
2013-03-05 14:15:00,64.2,32.9,30.26,East,94,14.0,25.0,31,0.00,,,0.00,Wunderground v.1.15,2013-03-05 22:15:00,
2013-03-05 14:20:00,63.9,32.6,30.26,SE,125,14.0,14.0,31,0.00,,,0.00,Wunderground v.1.15,2013-03-05 22:20:00,
2013-03-05 14:30:00,63.9,32.6,30.25,SE,144,13.0,13.0,31,0.00,,,0.00,Wunderground v.1.15,2013-03-05 22:30:00,
2013-03-05 14:35:00,64.0,33.5,30.26,SSE,152,14.0,18.0,32,0.00,,,0.00,Wunderground v.1.15,2013-03-05 22:35:00,
2013-03-05 14:40:00,64.0,32.7,30.26,SE,131,13.0,29.0,31,0.00,,,0.00,Wunderground v.1.15,2013-03-05 22:40:00,
2013-03-05 14:45:00,64.3,33.0,30.26,SSE,152,13.0,29.0,31,0.00,,,0.00,Wunderground v.1.15,2013-03-05 22:45:00,
2013-03-05 14:55:00,64.2,33.7,30.25,ESE,111,12.0,29.0,32,0.00,,,0.00,Wunderground v.1.15,2013-03-05 22:55:00,
2013-03-05 15:00:00,64.1,34.4,30.25,SE,132,12.0,29.0,33,0.00,,,0.00,Wunderground v.1.15,2013-03-05 23:00:00,
2013-03-05 15:05:00,63.7,34.0,30.25,ESE,105,13.0,29.0,33,0.00,,,0.00,Wunderground v.1.15,2013-03-05 23:05:00,
2013-03-05 15:15:00,63.5,34.6,30.25,SSE,151,12.0,15.0,34,0.00,,,0.00,Wunderground v.1.15,2013-03-05 23:15:00,
2013-03-05 15:20:00,63.5,34.6,30.25,ESE,120,12.0,27.0,34,0.00,,,0.00,Wunderground v.1.15,2013-03-05 23:20:00,
2013-03-05 15:30:00,63.3,35.2,30.25,SSE,156,11.0,27.0,35,0.00,,,0.00,Wunderground v.1.15,2013-03-05 23:30:00,
2013-03-05 15:35:00,63.1,35.0,30.25,SSE,155,13.0,27.0,35,0.00,,,0.00,Wunderground v.1.15,2013-03-05 23:35:00,
2013-03-05 15:40:00,63.2,35.8,30.25,SSE,152,13.0,13.0,36,0.00,,,0.00,Wunderground v.1.15,2013-03-05 23:40:00,
2013-03-05 15:50:00,63.2,35.1,30.25,SSE,148,12.0,24.0,35,0.00,,,0.00,Wunderground v.1.15,2013-03-05 23:50:00,
2013-03-05 15:55:00,62.5,35.2,30.25,SE,137,12.0,24.0,36,0.00,,,0.00,Wunderground v.1.15,2013-03-05 23:55:00,
2013-03-05 16:00:00,62.7,34.6,30.25,SE,131,12.0,24.0,35,0.00,,,0.00,Wunderground v.1.15,2013-03-06 00:00:00,
2013-03-05 16:05:00,62.3,35.0,30.25,SE,132,12.0,24.0,36,0.00,,,0.00,Wunderground v.1.15,2013-03-06 00:05:00,
2013-03-05 16:15:00,62.0,34.7,30.25,SE,144,12.0,16.0,36,0.00,,,0.00,Wunderground v.1.15,2013-03-06 00:15:00,
2013-03-05 16:20:00,61.8,34.5,30.24,SE,126,13.0,24.0,36,0.00,,,0.00,Wunderground v.1.15,2013-03-06 00:20:00,
2013-03-05 16:30:00,61.4,35.5,30.24,SE,125,13.0,24.0,38,0.00,,,0.00,Wunderground v.1.15,2013-03-06 00:30:00,
2013-03-05 16:35:00,61.2,35.4,30.24,ESE,112,13.0,24.0,38,0.00,,,0.00,Wunderground v.1.15,2013-03-06 00:35:00,
2013-03-05 16:45:00,60.9,35.8,30.24,SE,129,13.0,23.0,39,0.00,,,0.00,Wunderground v.1.15,2013-03-06 00:45:00,
2013-03-05 16:50:00,60.8,36.3,30.24,SE,127,12.0,23.0,40,0.00,,,0.00,Wunderground v.1.15,2013-03-06 00:50:00,
2013-03-05 16:55:00,60.3,36.5,30.24,SSE,150,12.0,23.0,41,0.00,,,0.00,Wunderground v.1.15,2013-03-06 00:55:00,
2013-03-05 17:05:00,60.3,36.5,30.24,SE,142,9.0,22.0,41,0.00,,,0.00,Wunderground v.1.15,2013-03-06 01:05:00,
2013-03-05 17:10:00,60.0,36.2,30.24,SSE,154,9.0,22.0,41,0.00,,,0.00,Wunderground v.1.15,2013-03-06 01:10:00,
2013-03-05 17:15:00,59.6,36.5,30.24,SE,125,10.0,22.0,42,0.00,,,0.00,Wunderground v.1.15,2013-03-06 01:15:00,
2013-03-05 17:20:00,59.5,37.0,30.25,SE,131,11.0,11.0,43,0.00,,,0.00,Wunderground v.1.15,2013-03-06 01:20:00,
2013-03-05 17:30:00,58.8,37.5,30.24,SSE,148,12.0,12.0,45,0.00,,,0.00,Wunderground v.1.15,2013-03-06 01:30:00,
2013-03-05 17:35:00,58.6,37.9,30.24,SSE,156,10.0,22.0,46,0.00,,,0.00,Wunderground v.1.15,2013-03-06 01:35:00,
2013-03-05 17:45:00,58.1,37.4,30.24,SSE,148,9.0,22.0,46,0.00,,,0.00,Wunderground v.1.15,2013-03-06 01:45:00,
2013-03-05 17:50:00,57.8,37.7,30.24,ESE,111,9.0,22.0,47,0.00,,,0.00,Wunderground v.1.15,2013-03-06 01:50:00,
2013-03-05 18:00:00,57.5,37.4,30.24,SSE,166,9.0,22.0,47,0.00,,,0.00,Wunderground v.1.15,2013-03-06 02:00:00,
2013-03-05 18:05:00,57.3,37.8,30.24,SSE,158,10.0,22.0,48,0.00,,,0.00,Wunderground v.1.15,2013-03-06 02:05:00,
2013-03-05 18:15:00,56.9,37.4,30.24,SE,124,8.0,18.0,48,0.00,,,0.00,Wunderground v.1.15,2013-03-06 02:15:00,
2013-03-05 18:20:00,56.7,37.2,30.25,SE,140,8.0,8.0,48,0.00,,,0.00,Wunderground v.1.15,2013-03-06 02:20:00,
2013-03-05 18:25:00,56.5,37.6,30.25,SE,144,8.0,18.0,49,0.00,,,0.00,Wunderground v.1.15,2013-03-06 02:25:00,
2013-03-05 18:30:00,56.4,37.5,30.25,SE,144,8.0,18.0,49,0.00,,,0.00,Wunderground v.1.15,2013-03-06 02:30:00,
2013-03-05 18:35:00,56.3,37.4,30.25,SSE,150,8.0,18.0,49,0.00,,,0.00,Wunderground v.1.15,2013-03-06 02:35:00,
2013-03-05 18:45:00,56.2,37.3,30.25,SSE,151,9.0,15.0,49,0.00,,,0.00,Wunderground v.1.15,2013-03-06 02:45:00,
2013-03-05 18:50:00,56.0,37.6,30.25,SSE,155,9.0,9.0,50,0.00,,,0.00,Wunderground v.1.15,2013-03-06 02:50:00,
2013-03-05 19:00:00,55.8,37.4,30.25,SE,144,10.0,10.0,50,0.00,,,0.00,Wunderground v.1.15,2013-03-06 03:00:00,
2013-03-05 19:05:00,55.7,37.3,30.25,SE,140,10.0,18.0,50,0.00,,,0.00,Wunderground v.1.15,2013-03-06 03:05:00,
2013-03-05 19:15:00,55.6,37.2,30.25,SSE,150,10.0,18.0,50,0.00,,,0.00,Wunderground v.1.15,2013-03-06 03:15:00,
2013-03-05 19:25:00,55.5,36.6,30.25,SSE,154,10.0,11.0,49,0.00,,,0.00,Wunderground v.1.15,2013-03-06 03:25:00,
2013-03-05 19:30:00,55.4,36.5,30.25,SE,128,10.0,10.0,49,0.00,,,0.00,Wunderground v.1.15,2013-03-06 03:30:00,
2013-03-05 19:40:00,55.1,36.3,30.24,SSE,155,10.0,20.0,49,0.00,,,0.00,Wunderground v.1.15,2013-03-06 03:40:00,
2013-03-05 19:45:00,54.9,36.1,30.24,SSE,151,10.0,20.0,49,0.00,,,0.00,Wunderground v.1.15,2013-03-06 03:45:00,
2013-03-05 19:50:00,54.9,36.1,30.24,SSE,152,9.0,20.0,49,0.00,,,0.00,Wunderground v.1.15,2013-03-06 03:50:00,
2013-03-05 20:00:00,54.8,36.0,30.25,SE,143,9.0,9.0,49,0.00,,,0.00,Wunderground v.1.15,2013-03-06 04:00:00,
2013-03-05 20:05:00,54.8,36.0,30.25,SE,139,8.0,17.0,49,0.00,,,0.00,Wunderground v.1.15,2013-03-06 04:05:00,
2013-03-05 20:10:00,54.8,36.0,30.25,SSE,148,9.0,9.0,49,0.00,,,0.00,Wunderground v.1.15,2013-03-06 04:10:00,
2013-03-05 20:20:00,54.9,36.1,30.25,SSE,155,8.0,17.0,49,0.00,,,0.00,Wunderground v.1.15,2013-03-06 04:20:00,
2013-03-05 20:30:00,54.8,36.0,30.25,SSE,167,10.0,10.0,49,0.00,,,0.00,Wunderground v.1.15,2013-03-06 04:30:00,
2013-03-05 20:35:00,54.6,35.8,30.25,SSE,149,10.0,15.0,49,0.00,,,0.00,Wunderground v.1.15,2013-03-06 04:35:00,
2013-03-05 20:45:00,54.3,36.0,30.25,South,169,9.0,13.0,50,0.00,,,0.00,Wunderground v.1.15,2013-03-06 04:45:00,
2013-03-05 20:50:00,54.1,35.9,30.25,SSE,160,9.0,15.0,50,0.00,,,0.00,Wunderground v.1.15,2013-03-06 04:50:00,
2013-03-05 21:00:00,53.8,35.6,30.25,South,172,8.0,8.0,50,0.00,,,0.00,Wunderground v.1.15,2013-03-06 05:00:00,
2013-03-05 21:05:00,53.8,35.6,30.25,SSE,151,7.0,15.0,50,0.00,,,0.00,Wunderground v.1.15,2013-03-06 05:05:00,
2013-03-05 21:15:00,53.4,35.7,30.25,SSE,152,7.0,15.0,51,0.00,,,0.00,Wunderground v.1.15,2013-03-06 05:15:00,
2013-03-05 21:20:00,53.2,35.5,30.25,SE,146,7.0,7.0,51,0.00,,,0.00,Wunderground v.1.15,2013-03-06 05:20:00,
2013-03-05 21:25:00,53.2,35.0,30.25,SSE,163,6.0,15.0,50,0.00,,,0.00,Wunderground v.1.15,2013-03-06 05:25:00,
2013-03-05 21:35:00,53.3,34.1,30.25,SE,144,5.0,15.0,48,0.00,,,0.00,Wunderground v.1.15,2013-03-06 05:35:00,
2013-03-05 21:45:00,53.4,33.1,30.25,SSE,148,4.0,12.0,46,0.00,,,0.00,Wunderground v.1.15,2013-03-06 05:45:00,
2013-03-05 21:50:00,53.5,32.7,30.25,SSE,148,4.0,4.0,45,0.00,,,0.00,Wunderground v.1.15,2013-03-06 05:50:00,
2013-03-05 22:00:00,53.6,31.0,30.25,SE,137,5.0,12.0,42,0.00,,,0.00,Wunderground v.1.15,2013-03-06 06:00:00,
2013-03-05 22:05:00,53.4,30.9,30.25,SE,140,4.0,12.0,42,0.00,,,0.00,Wunderground v.1.15,2013-03-06 06:05:00,
2013-03-05 22:15:00,53.3,30.8,30.25,SE,140,5.0,11.0,42,0.00,,,0.00,Wunderground v.1.15,2013-03-06 06:15:00,
2013-03-05 22:20:00,53.0,29.9,30.24,SE,139,5.0,5.0,41,0.00,,,0.00,Wunderground v.1.15,2013-03-06 06:20:00,
2013-03-05 22:30:00,52.9,29.8,30.24,SSE,161,4.0,11.0,41,0.00,,,0.00,Wunderground v.1.15,2013-03-06 06:30:00,
2013-03-05 22:35:00,52.8,30.3,30.24,SE,136,5.0,11.0,42,0.00,,,0.00,Wunderground v.1.15,2013-03-06 06:35:00,
2013-03-05 22:45:00,52.4,30.0,30.24,SE,146,4.0,10.0,42,0.00,,,0.00,Wunderground v.1.15,2013-03-06 06:45:00,
2013-03-05 22:55:00,52.1,29.7,30.23,SSE,150,2.0,10.0,42,0.00,,,0.00,Wunderground v.1.15,2013-03-06 06:55:00,
2013-03-05 23:00:00,52.1,29.1,30.24,SSE,150,2.0,2.0,41,0.00,,,0.00,Wunderground v.1.15,2013-03-06 07:00:00,
2013-03-05 23:05:00,52.2,28.0,30.24,SSE,165,2.0,3.0,39,0.00,,,0.00,Wunderground v.1.15,2013-03-06 07:05:00,
2013-03-05 23:15:00,52.3,28.7,30.23,SE,129,4.0,10.0,40,0.00,,,0.00,Wunderground v.1.15,2013-03-06 07:15:00,
2013-03-05 23:20:00,52.0,29.0,30.23,SE,145,5.0,10.0,41,0.00,,,0.00,Wunderground v.1.15,2013-03-06 07:20:00,
2013-03-05 23:30:00,51.7,29.3,30.23,SE,141,6.0,6.0,42,0.00,,,0.00,Wunderground v.1.15,2013-03-06 07:30:00,
2013-03-05 23:35:00,51.7,29.3,30.22,SE,139,7.0,9.0,42,0.00,,,0.00,Wunderground v.1.15,2013-03-06 07:35:00,
2013-03-05 23:40:00,51.7,29.3,30.22,SE,125,9.0,9.0,42,0.00,,,0.00,Wunderground v.1.15,2013-03-06 07:40:00,
2013-03-05 23:45:00,51.8,29.4,30.22,SSE,154,10.0,10.0,42,0.00,,,0.00,Wunderground v.1.15,2013-03-06 07:45:00,
2013-03-05 23:55:00,51.4,30.7,30.22,SSE,167,10.0,17.0,45,0.00,,,0.00,Wunderground v.1.15,2013-03-06 07:55:00,